This is the latest recevied weather packets stored in our database for station/object SP2ARQ-13. If no packets are shown the sender has not sent any weather packets the latest 10 day(s).
| Time | Temp. | Humidity | Pressure | Rain* | Wind** | Luminosity | Snow |
|---|---|---|---|---|---|---|---|
| 1777324354 | 4.44° C | 55% | 1023.3 hPa | - | - | - | - |
| 1777323454 | 5° C | 55% | 1023.1 hPa | - | - | - | - |
| 1777322554 | 5° C | 54% | 1023 hPa | - | - | - | - |
| 1777321654 | 5° C | 54% | 1022.9 hPa | - | - | - | - |
| 1777320754 | 5.56° C | 53% | 1022.9 hPa | - | - | - | - |
| 1777319853 | 6.11° C | 52% | 1022.8 hPa | - | - | - | - |
| 1777318953 | 6.11° C | 52% | 1022.7 hPa | - | - | - | - |
| 1777312644 | 9.44° C | 45% | 1021.1 hPa | - | - | - | - |
| 1777311744 | 10° C | 45% | 1020.8 hPa | - | - | - | - |
| 1777310844 | 10.56° C | 43% | 1020.8 hPa | - | - | - | - |
| 1777309943 | 12.78° C | 41% | 1020.5 hPa | - | - | - | - |
| 1777309043 | 12.78° C | 42% | 1020.6 hPa | - | - | - | - |
| 1777308143 | 13.33° C | 42% | 1020.5 hPa | - | - | - | - |
| 1777307243 | 13.89° C | 42% | 1020.5 hPa | - | - | - | - |
| 1777306343 | 14.44° C | 40% | 1020.5 hPa | - | - | - | - |
| 1777305442 | 15° C | 41% | 1020.6 hPa | - | - | - | - |
| 1777304542 | 15° C | 40% | 1020.7 hPa | - | - | - | - |
| 1777303642 | 15.56° C | 39% | 1020.6 hPa | - | - | - | - |
| 1777302742 | 15° C | 41% | 1020.9 hPa | - | - | - | - |
| 1777301842 | 15° C | 41% | 1020.8 hPa | - | - | - | - |
| 1777300942 | 15° C | 41% | 1020.9 hPa | - | - | - | - |
| 1777300041 | 14.44° C | 41% | 1021 hPa | - | - | - | - |
| 1777299140 | 15° C | 40% | 1021.2 hPa | - | - | - | - |
| 1777298240 | 16.11° C | 39% | 1021.1 hPa | - | - | - | - |
| 1777297338 | 16.67° C | 39% | 1021.3 hPa | - | - | - | - |
* Rain since midnight (hover to see other rain measurements)
** Current wind speed in m/s (hover to see current wind gust speed)